Terminal Aerodrome Forecast
Issued by NWS

Home | Current Version | Previous Version | Text Only | Print | Product List | Glossary On
Versions: 1 2 3 4 5 6 7 8 9 10 11 12 13
919
FTUS46 KSTO 251506 AAA
TAFMHR
TAF AMD
KMHR 251506Z 2515/2612 14009KT P6SM -SHRA OVC015
      TEMPO 2515/2518 5SM -SHRA OVC010
     FM251900 16006KT P6SM VCSH OVC030
     FM260000 16004KT P6SM VCSH BKN050
     FM260600 VRB04KT P6SM -SHRA BKN050=

USA.gov is the U.S. government's official web portal to all federal, state and local government web resources and services.